Time;durP1;ratioP1;P1;durP2;ratioP2;P2;SDS_P1;SDS_P2;PMS_P1;PMS_P2;Temp;Humidity;BMP_temperature;BMP_pressure;BME280_temperature;BME280_humidity;BME280_pressure;Samples;Min_cycle;Max_cycle;Signal;HPM_P1;HPM_P2
2023/05/11 04:43:14;;;;;;;4.72;3.62;;;;;;;11.88;80.08;100407.16;6616569;26;20052;-88
2023/05/11 04:46:24;;;;;;;5.90;3.75;;;;;;;11.96;80.03;100417.34;6573254;27;20041;-88
2023/05/11 05:00:40;;;;;;;6.00;4.28;;;;;;;12.32;72.36;100418.94;6594798;27;20060;-88
2023/05/11 05:34:26;;;;;;;5.97;4.07;;;;;;;13.39;61.84;100430.53;6579601;27;20055;-86
2023/05/11 05:37:34;;;;;;;8.90;3.83;;;;;;;13.23;59.79;100435.06;6581457;27;34460;-86
2023/05/11 05:40:42;;;;;;;4.90;3.85;;;;;;;13.32;58.44;100429.16;6584028;27;34769;-86
2023/05/11 05:43:50;;;;;;;8.98;4.07;;;;;;;13.34;58.50;100436.09;6580768;27;33586;-87
2023/05/11 05:46:58;;;;;;;7.72;3.97;;;;;;;13.49;58.33;100436.19;6581643;27;33640;-86
2023/05/11 05:50:07;;;;;;;7.28;4.00;;;;;;;13.45;57.09;100434.59;6582534;27;33715;-86
2023/05/11 05:53:13;;;;;;;4.72;4.18;;;;;;;13.30;58.23;100442.59;6593553;27;34106;-86
2023/05/11 05:56:20;;;;;;;6.37;3.92;;;;;;;13.34;59.06;100444.09;6590831;27;34210;-86
2023/05/11 05:59:29;;;;;;;6.60;4.00;;;;;;;13.50;59.66;100440.56;6591832;27;33975;-86
2023/05/11 06:02:37;;;;;;;5.95;4.05;;;;;;;13.87;58.53;100442.72;6595049;27;34730;-87
2023/05/11 06:05:42;;;;;;;9.93;4.10;;;;;;;14.19;55.23;100455.00;6594474;27;34622;-91
2023/05/11 06:08:45;;;;;;;6.70;3.83;;;;;;;14.22;57.13;100453.00;6595557;27;35074;-90
2023/05/11 06:11:52;;;;;;;7.82;3.90;;;;;;;14.40;56.72;100447.44;6591204;27;35932;-85
2023/05/11 06:14:58;;;;;;;3.78;3.47;;;;;;;14.37;56.04;100455.62;6582086;27;34074;-85
2023/05/11 06:18:03;;;;;;;6.78;4.25;;;;;;;14.65;55.43;100444.03;6581403;27;33817;-86
2023/05/11 06:21:11;;;;;;;7.00;4.00;;;;;;;15.83;51.55;100443.22;6580740;27;33868;-86
2023/05/11 06:24:19;;;;;;;10.73;4.00;;;;;;;16.74;50.35;100453.66;6581472;27;33694;-85
2023/05/11 06:27:25;;;;;;;9.90;4.40;;;;;;;16.38;49.96;100450.06;6579826;27;33946;-85
2023/05/11 06:30:30;;;;;;;6.82;3.85;;;;;;;16.79;48.08;100456.03;6580006;27;34336;-86
2023/05/11 06:33:37;;;;;;;5.03;3.80;;;;;;;16.12;50.15;100453.69;6581597;27;33947;-85
2023/05/11 06:36:46;;;;;;;5.43;4.00;;;;;;;16.22;50.60;100450.34;6581961;27;34122;-86
2023/05/11 06:39:50;;;;;;;11.57;4.10;;;;;;;16.14;50.65;100449.06;6579523;27;33397;-85
2023/05/11 06:42:55;;;;;;;11.02;4.30;;;;;;;16.11;51.46;100446.63;6578826;27;33910;-88
2023/05/11 06:46:05;;;;;;;5.97;3.85;;;;;;;15.96;51.31;100445.03;6581674;27;34113;-88
2023/05/11 06:49:11;;;;;;;7.25;4.50;;;;;;;15.94;52.53;100441.63;6581481;27;33503;-85
2023/05/11 06:52:20;;;;;;;6.40;4.03;;;;;;;16.22;51.62;100440.50;6585469;27;33993;-84
2023/05/11 06:55:26;;;;;;;5.70;3.90;;;;;;;16.22;51.16;100445.84;6586696;27;34212;-85
2023/05/11 06:58:32;;;;;;;5.87;3.65;;;;;;;16.11;52.64;100448.44;6586018;27;34783;-85
2023/05/11 07:01:38;;;;;;;6.82;4.32;;;;;;;16.90;50.94;100442.66;6585163;27;34530;-84
2023/05/11 07:04:43;;;;;;;8.40;4.37;;;;;;;17.00;49.81;100444.66;6586354;27;34004;-85
2023/05/11 07:07:47;;;;;;;4.05;3.65;;;;;;;17.25;49.60;100430.25;6587368;27;33889;-85
2023/05/11 07:10:51;;;;;;;5.03;4.10;;;;;;;17.55;48.79;100423.47;6584139;27;34171;-84
2023/05/11 07:13:57;;;;;;;5.75;4.12;;;;;;;17.55;46.86;100430.66;6580126;27;34101;-85
2023/05/11 07:17:02;;;;;;;4.97;4.07;;;;;;;17.31;47.66;100435.16;6583561;27;34376;-85
2023/05/11 07:20:09;;;;;;;9.25;4.32;;;;;;;16.84;49.67;100435.94;6581004;27;33724;-85
2023/05/11 07:23:14;;;;;;;6.07;4.10;;;;;;;16.70;49.46;100436.16;6581669;27;33860;-86
2023/05/11 07:26:20;;;;;;;4.00;3.60;;;;;;;16.98;48.09;100424.19;6577870;27;34543;-90
2023/05/11 07:29:25;;;;;;;4.00;3.60;;;;;;;16.94;48.94;100425.38;6578079;27;34429;-92
2023/05/11 07:32:31;;;;;;;13.55;4.07;;;;;;;17.46;47.98;100425.03;6578746;27;34097;-91
2023/05/11 07:35:36;;;;;;;6.30;4.35;;;;;;;17.84;47.65;100422.12;6579572;27;34713;-90
2023/05/11 07:38:44;;;;;;;8.07;4.30;;;;;;;17.93;46.18;100421.41;6587387;27;34133;-86
2023/05/11 07:41:49;;;;;;;6.28;4.40;;;;;;;18.28;44.92;100430.28;6579563;27;34577;-86
2023/05/11 07:44:54;;;;;;;6.37;4.03;;;;;;;17.88;45.16;100427.16;6580509;27;33772;-86
2023/05/11 07:48:01;;;;;;;5.07;3.90;;;;;;;17.82;45.18;100416.91;6578307;27;33814;-87
2023/05/11 07:51:09;;;;;;;4.37;3.67;;;;;;;18.41;45.05;100417.56;6578734;27;33592;-87
2023/05/11 07:54:15;;;;;;;5.75;3.70;;;;;;;18.70;43.91;100421.47;6579319;27;34526;-87
2023/05/11 07:57:22;;;;;;;6.18;3.30;;;;;;;19.05;41.95;100425.75;6589678;27;33693;-87
2023/05/11 08:00:25;;;;;;;6.05;3.80;;;;;;;19.39;42.79;100417.50;6585999;27;34098;-86
2023/05/11 08:03:29;;;;;;;5.72;3.40;;;;;;;19.85;41.24;100418.94;6581011;27;34098;-87
2023/05/11 08:06:32;;;;;;;8.02;3.60;;;;;;;20.46;39.14;100428.78;6586490;27;33671;-87
2023/05/11 08:09:36;;;;;;;4.43;3.60;;;;;;;19.54;40.82;100417.13;6578033;27;34328;-87
2023/05/11 08:12:39;;;;;;;7.50;3.60;;;;;;;20.25;41.30;100418.12;6577537;27;33766;-87
2023/05/11 08:15:44;;;;;;;4.32;3.70;;;;;;;20.63;38.98;100412.06;6577185;27;33959;-87
2023/05/11 08:18:47;;;;;;;6.95;3.42;;;;;;;20.41;39.61;100414.03;6578113;27;33560;-87
2023/05/11 08:21:51;;;;;;;8.00;3.25;;;;;;;21.68;38.59;100415.72;6577619;27;34310;-86
2023/05/11 08:24:56;;;;;;;3.97;3.25;;;;;;;21.79;37.18;100406.63;6578574;27;34579;-86
2023/05/11 08:28:06;;;;;;;4.12;2.97;;;;;;;22.37;36.07;100411.00;6577945;27;34607;-85
2023/05/11 08:31:13;;;;;;;5.15;3.08;;;;;;;22.05;34.35;100405.06;6577112;27;33886;-86
2023/05/11 08:34:17;;;;;;;3.55;2.92;;;;;;;21.74;35.32;100405.38;6575767;27;33768;-85
2023/05/11 08:37:25;;;;;;;5.32;3.12;;;;;;;22.11;35.74;100395.53;6581278;27;33565;-85
2023/05/11 08:40:31;;;;;;;3.37;3.03;;;;;;;21.93;35.49;100396.34;6581391;27;33454;-86
2023/05/11 08:43:35;;;;;;;5.93;2.75;;;;;;;23.58;34.07;100387.97;6578265;27;34404;-85
2023/05/11 08:46:43;;;;;;;5.50;2.75;;;;;;;23.23;32.82;100385.19;6581972;27;33771;-84
2023/05/11 08:49:51;;;;;;;4.28;2.90;;;;;;;23.17;31.99;100382.31;6582321;27;35089;-84
2023/05/11 08:52:55;;;;;;;3.10;2.80;;;;;;;22.88;32.79;100389.72;6582883;27;34070;-83
2023/05/11 08:56:05;;;;;;;3.53;3.03;;;;;;;22.45;33.71;100381.34;6585352;27;34776;-86
2023/05/11 08:59:13;;;;;;;5.37;3.12;;;;;;;22.76;33.63;100372.87;6580150;27;33914;-89
2023/05/11 09:02:19;;;;;;;4.35;3.03;;;;;;;23.24;32.96;100375.25;6580886;27;33901;-85
2023/05/11 09:05:24;;;;;;;4.65;2.83;;;;;;;23.50;32.29;100377.97;6580711;27;33764;-84
2023/05/11 09:08:34;;;;;;;6.30;2.60;;;;;;;23.96;31.42;100371.38;6581096;27;33764;-84
2023/05/11 09:11:41;;;;;;;3.37;3.05;;;;;;;24.20;31.64;100364.34;6581448;27;33733;-84
2023/05/11 09:14:48;;;;;;;6.20;3.17;;;;;;;23.73;31.29;100371.94;6582045;27;34060;-84
2023/05/11 09:17:55;;;;;;;6.93;3.03;;;;;;;22.85;32.86;100358.41;6582152;27;34686;-84
2023/05/11 09:21:01;;;;;;;10.93;3.20;;;;;;;23.75;32.45;100358.25;6582047;27;34264;-85
2023/05/11 09:24:11;;;;;;;4.47;3.30;;;;;;;24.41;31.55;100352.16;6581564;27;33505;-85
2023/05/11 09:27:18;;;;;;;4.15;3.53;;;;;;;23.50;32.13;100358.16;6584264;27;35943;-84
2023/05/11 09:30:27;;;;;;;4.75;3.15;;;;;;;22.83;32.59;100356.88;6585470;27;34117;-84
2023/05/11 09:33:36;;;;;;;13.13;2.95;;;;;;;22.62;33.40;100348.09;6585361;27;34140;-84
2023/05/11 09:36:55;;;;;;;4.53;3.10;;;;;;;22.68;33.79;100348.47;6583842;27;34738;-84
2023/05/11 09:40:01;;;;;;;4.50;2.87;;;;;;;23.58;32.66;100338.41;6584941;27;33507;-84
2023/05/11 09:43:29;;;;;;;3.70;2.83;;;;;;;23.69;32.00;100338.94;6591345;27;34072;-83
2023/05/11 09:46:37;;;;;;;3.08;2.85;;;;;;;24.11;31.01;100336.38;6592499;27;33919;-84
2023/05/11 09:49:45;;;;;;;3.72;3.10;;;;;;;23.73;31.20;100354.88;6588308;27;34405;-84
2023/05/11 09:52:51;;;;;;;3.72;2.85;;;;;;;22.52;33.62;100335.69;6587291;27;33880;-88
2023/05/11 09:55:58;;;;;;;2.75;2.55;;;;;;;23.14;33.22;100332.06;6588213;27;35060;-89
2023/05/11 09:59:03;;;;;;;5.65;2.80;;;;;;;23.57;31.80;100328.59;6584285;27;33800;-84
2023/05/11 10:02:26;;;;;;;3.67;2.95;;;;;;;22.58;32.80;100337.75;6585561;27;34244;-84
2023/05/11 10:05:35;;;;;;;4.37;2.85;;;;;;;22.12;33.87;100332.41;6586428;27;34108;-85
2023/05/11 10:08:39;;;;;;;6.57;2.83;;;;;;;21.36;34.94;100332.47;6580871;27;34255;-85
2023/05/11 10:11:45;;;;;;;3.87;2.70;;;;;;;21.95;34.23;100334.91;6583949;27;33703;-85
2023/05/11 10:14:51;;;;;;;2.90;2.70;;;;;;;21.77;32.98;100322.22;6580899;27;34459;-86
2023/05/11 10:17:57;;;;;;;4.62;2.62;;;;;;;21.68;33.66;100323.94;6581809;27;33899;-85
2023/05/11 10:21:02;;;;;;;3.78;2.50;;;;;;;21.28;34.18;100319.75;6584507;27;34139;-86
2023/05/11 10:24:09;;;;;;;4.07;2.92;;;;;;;20.87;34.35;100303.84;6583735;27;33831;-86
2023/05/11 10:27:16;;;;;;;3.08;2.62;;;;;;;22.18;32.32;100329.91;6582511;27;33765;-85
2023/05/11 10:30:21;;;;;;;4.37;2.62;;;;;;;22.78;30.47;100319.47;6582167;27;34385;-85
2023/05/11 10:33:28;;;;;;;3.00;2.22;;;;;;;23.43;29.68;100309.22;6584342;27;33886;-86
2023/05/11 10:36:35;;;;;;;2.95;2.62;;;;;;;23.72;29.43;100307.16;6589678;27;34940;-86
2023/05/11 10:39:42;;;;;;;3.90;2.37;;;;;;;22.71;29.71;100313.00;6594879;27;34177;-86
2023/05/11 10:42:55;;;;;;;5.15;2.50;;;;;;;22.69;29.79;100296.09;6594160;27;34956;-84
2023/05/11 10:47:06;;;;;;;6.45;3.08;;;;;;;21.73;31.99;100296.53;6592898;27;35671;-84
2023/05/11 10:50:33;;;;;;;7.53;3.47;;;;;;;22.10;32.22;100293.88;6594171;27;33830;-85
2023/05/11 10:54:05;;;;;;;3.70;2.62;;;;;;;22.31;31.21;100293.56;6586103;27;34177;-86
2023/05/11 10:57:46;;;;;;;3.03;2.80;;;;;;;22.37;32.10;100297.50;6583245;27;34771;-85
2023/05/11 11:01:26;;;;;;;4.93;2.50;;;;;;;22.26;31.86;100295.88;6579859;27;34064;-87
2023/05/11 11:04:50;;;;;;;4.78;2.95;;;;;;;23.12;31.05;100288.94;6468702;27;34513;-86
2023/05/11 11:08:06;;;;;;;2.80;2.55;;;;;;;23.64;28.79;100275.47;6467188;27;34160;-86
2023/05/11 11:11:35;;;;;;;7.82;2.70;;;;;;;23.61;29.59;100281.19;6471539;27;34175;-86
2023/05/11 11:14:55;;;;;;;5.68;2.40;;;;;;;22.55;30.61;100284.00;6465931;27;34115;-86
2023/05/11 11:18:32;;;;;;;2.85;2.53;;;;;;;21.24;32.31;100277.87;6466419;27;33549;-86
2023/05/11 11:21:40;;;;;;;4.15;2.30;;;;;;;21.51;31.00;100274.34;6464514;27;34222;-86
2023/05/11 11:24:44;;;;;;;3.33;2.28;;;;;;;21.88;31.47;100266.34;6469087;27;33894;-87
2023/05/11 11:27:51;;;;;;;3.87;2.70;;;;;;;21.94;30.86;100274.66;6469470;27;34704;-84
2023/05/11 11:31:25;;;;;;;8.07;2.30;;;;;;;21.51;31.28;100266.25;6472109;27;33712;-85
2023/05/11 11:34:28;;;;;;;5.12;2.50;;;;;;;21.39;30.66;100268.31;6461880;27;34867;-89
2023/05/11 11:38:02;;;;;;;7.53;2.70;;;;;;;21.59;31.46;100270.03;6499419;27;33787;-88
2023/05/11 11:41:08;;;;;;;2.45;2.20;;;;;;;20.67;31.81;100258.00;6579783;27;33843;-85
2023/05/11 11:44:20;;;;;;;4.43;2.45;;;;;;;21.08;32.49;100247.00;6579745;27;34345;-85
2023/05/11 11:47:25;;;;;;;5.20;2.15;;;;;;;21.28;31.79;100260.41;6582874;27;33972;-84
2023/05/11 11:50:30;;;;;;;2.97;2.35;;;;;;;21.11;31.71;100256.63;6583406;27;34090;-84
2023/05/11 11:53:36;;;;;;;3.83;2.47;;;;;;;21.31;32.39;100257.41;6583688;27;33987;-85
2023/05/11 11:56:42;;;;;;;3.60;2.40;;;;;;;21.43;32.04;100257.19;6582698;27;35233;-84
2023/05/11 11:59:48;;;;;;;2.83;2.30;;;;;;;20.77;32.17;100257.16;6581823;27;33909;-84
2023/05/11 12:02:53;;;;;;;5.28;2.60;;;;;;;21.20;32.29;100260.28;6580265;27;34014;-85
2023/05/11 12:06:00;;;;;;;3.22;2.35;;;;;;;21.29;32.47;100245.91;6582357;27;34572;-83
2023/05/11 12:09:09;;;;;;;4.55;2.42;;;;;;;21.27;31.93;100250.63;6584581;27;33957;-84
2023/05/11 12:12:16;;;;;;;4.45;2.42;;;;;;;20.96;32.99;100257.13;6582438;27;34313;-84
2023/05/11 12:15:31;;;;;;;2.72;2.28;;;;;;;20.86;33.65;100246.38;6583827;27;33658;-84
2023/05/11 12:18:36;;;;;;;2.83;2.42;;;;;;;20.36;34.09;100241.22;6580643;27;34900;-83
2023/05/11 12:21:44;;;;;;;3.75;2.83;;;;;;;20.39;34.55;100240.91;6582050;27;33633;-83
2023/05/11 12:24:48;;;;;;;3.60;2.72;;;;;;;20.65;34.73;100241.16;6580049;27;33868;-83
2023/05/11 12:27:54;;;;;;;3.85;2.70;;;;;;;20.41;34.44;100234.38;6581854;27;34780;-83
2023/05/11 12:30:57;;;;;;;4.70;2.60;;;;;;;20.43;34.36;100234.25;6579762;27;33998;-83
2023/05/11 12:34:02;;;;;;;3.53;2.80;;;;;;;21.10;34.05;100241.44;6582302;27;33947;-84
2023/05/11 12:37:09;;;;;;;3.75;2.60;;;;;;;21.39;33.47;100237.78;6580899;27;34414;-84
2023/05/11 12:40:15;;;;;;;6.68;2.78;;;;;;;21.67;32.25;100226.94;6581698;27;33914;-88
2023/05/11 12:43:21;;;;;;;3.87;2.67;;;;;;;21.23;32.61;100227.63;6582580;27;33967;-88
2023/05/11 12:46:24;;;;;;;6.18;2.70;;;;;;;21.04;33.89;100231.25;6582022;27;33901;-84
2023/05/11 12:49:28;;;;;;;3.05;2.62;;;;;;;20.87;34.32;100215.72;6583475;27;33634;-84
2023/05/11 12:52:31;;;;;;;5.97;2.80;;;;;;;20.92;33.35;100214.44;6580757;27;33782;-84
2023/05/11 12:55:37;;;;;;;2.58;2.37;;;;;;;20.96;33.13;100216.69;6580403;27;34080;-84
2023/05/11 12:58:42;;;;;;;2.75;2.53;;;;;;;20.70;33.90;100216.44;6584173;27;33658;-84
2023/05/11 13:01:48;;;;;;;2.65;2.42;;;;;;;20.89;33.39;100210.19;6581326;27;33832;-84
2023/05/11 13:04:53;;;;;;;3.30;2.47;;;;;;;20.99;33.30;100213.69;6580982;27;34056;-83
2023/05/11 13:08:01;;;;;;;4.03;2.72;;;;;;;20.76;33.57;100206.94;6580902;27;35228;-84
2023/05/11 13:11:21;;;;;;;9.02;2.87;;;;;;;20.74;34.14;100197.16;6582644;27;34018;-84
2023/05/11 13:14:24;;;;;;;2.90;2.70;;;;;;;21.03;33.72;100197.22;6584999;27;33942;-83
2023/05/11 13:17:36;;;;;;;6.07;2.45;;;;;;;21.07;33.20;100191.34;6582508;27;33583;-83
2023/05/11 13:20:42;;;;;;;2.83;2.22;;;;;;;20.94;32.53;100191.72;6583668;27;34206;-83
2023/05/11 13:23:48;;;;;;;3.45;2.40;;;;;;;20.90;33.00;100182.22;6585576;27;34293;-84
2023/05/11 13:26:52;;;;;;;2.55;2.35;;;;;;;20.96;32.65;100186.16;6584357;27;34227;-84
2023/05/11 13:29:55;;;;;;;3.45;2.30;;;;;;;20.95;32.95;100181.78;6588652;27;34491;-85
2023/05/11 13:32:58;;;;;;;5.50;2.67;;;;;;;20.96;32.85;100195.09;6587587;27;36617;-84
2023/05/11 13:36:01;;;;;;;4.37;2.40;;;;;;;20.98;32.51;100182.31;6585956;27;34531;-85
2023/05/11 13:39:04;;;;;;;6.35;2.30;;;;;;;20.86;32.56;100176.28;6586679;27;33541;-83
2023/05/11 13:42:07;;;;;;;2.83;2.40;;;;;;;20.86;32.67;100165.50;6586082;27;34994;-84
2023/05/11 13:45:11;;;;;;;2.75;2.30;;;;;;;20.39;32.38;100169.03;6582339;27;34054;-84
2023/05/11 13:48:16;;;;;;;3.35;2.60;;;;;;;20.17;31.97;100164.84;6583000;27;34186;-85
2023/05/11 13:51:20;;;;;;;3.15;2.50;;;;;;;20.18;32.43;100156.59;6583521;27;33925;-84
2023/05/11 13:54:24;;;;;;;2.87;2.42;;;;;;;20.41;32.16;100152.75;6583700;27;34351;-84
2023/05/11 13:57:31;;;;;;;4.28;2.50;;;;;;;20.24;32.86;100144.41;6583077;27;34929;-84
2023/05/11 14:00:40;;;;;;;3.05;2.40;;;;;;;20.38;32.78;100156.56;6579372;27;33991;-82
2023/05/11 14:03:57;;;;;;;2.60;2.40;;;;;;;20.16;32.86;100142.44;6580106;27;34193;-86
2023/05/11 14:07:05;;;;;;;4.35;2.37;;;;;;;20.23;32.04;100150.81;6579855;27;33976;-85
2023/05/11 14:10:13;;;;;;;2.90;2.30;;;;;;;20.19;30.97;100139.47;6579336;27;33728;-85
2023/05/11 14:13:21;;;;;;;4.70;2.22;;;;;;;20.08;32.00;100142.31;6578513;27;33476;-86
2023/05/11 14:16:31;;;;;;;;;;;;;;;20.27;31.49;100141.41;6581352;27;33869;-85
2023/05/11 14:19:39;;;;;;;2.60;2.40;;;;;;;20.29;31.30;100138.56;6582348;27;34225;-85
2023/05/11 14:22:45;;;;;;;2.65;1.92;;;;;;;20.23;31.39;100140.03;6583156;27;33835;-85
2023/05/11 14:25:51;;;;;;;4.03;2.35;;;;;;;20.29;32.04;100135.87;6582834;27;33873;-85
2023/05/11 14:28:58;;;;;;;2.30;2.10;;;;;;;20.52;31.31;100139.06;6580493;27;33589;-85
2023/05/11 14:32:06;;;;;;;2.05;1.95;;;;;;;20.25;30.64;100131.78;6579690;27;33774;-86
2023/05/11 14:35:14;;;;;;;3.67;2.10;;;;;;;20.17;31.23;100135.22;6579522;27;33783;-85
2023/05/11 14:38:17;;;;;;;2.72;2.22;;;;;;;20.16;31.32;100133.53;6580140;27;34465;-86
2023/05/11 14:41:22;;;;;;;7.20;2.22;;;;;;;20.03;31.57;100139.22;6579098;27;34734;-86
2023/05/11 14:44:27;;;;;;;3.85;2.05;;;;;;;20.12;31.49;100122.16;6580690;27;34558;-86
2023/05/11 14:47:35;;;;;;;5.75;2.20;;;;;;;20.20;31.31;100119.63;6586346;27;34056;-85
2023/05/11 14:50:42;;;;;;;6.70;2.50;;;;;;;20.28;31.49;100120.72;6581554;27;35262;-85
2023/05/11 14:53:45;;;;;;;4.53;2.55;;;;;;;20.28;31.78;100121.59;6581838;27;33942;-85
2023/05/11 14:56:53;;;;;;;3.97;2.40;;;;;;;20.15;32.70;100118.34;6579062;27;33852;-85
2023/05/11 15:00:03;;;;;;;3.33;2.28;;;;;;;20.28;32.79;100121.59;6580616;27;35119;-85
2023/05/11 15:03:10;;;;;;;2.92;2.37;;;;;;;20.24;33.09;100130.09;6581099;27;35191;-85
2023/05/11 15:06:21;;;;;;;3.45;2.20;;;;;;;19.97;33.06;100126.31;6581883;27;33902;-85
2023/05/11 15:09:28;;;;;;;5.20;2.75;;;;;;;19.86;33.46;100125.44;6582661;27;34383;-86
2023/05/11 15:12:38;;;;;;;3.62;2.25;;;;;;;19.88;33.51;100130.69;6582293;27;33955;-83
2023/05/11 15:15:46;;;;;;;6.55;2.70;;;;;;;19.60;33.66;100122.47;6583736;27;33803;-89
2023/05/11 15:18:55;;;;;;;3.53;2.42;;;;;;;19.67;33.66;100124.47;6583229;27;34165;-86
2023/05/11 15:22:03;;;;;;;2.40;2.20;;;;;;;19.65;33.48;100128.28;6584102;27;34236;-86
2023/05/11 15:25:11;;;;;;;2.45;1.95;;;;;;;19.54;33.69;100131.97;6583822;27;33944;-85
2023/05/11 15:28:15;;;;;;;3.22;2.28;;;;;;;19.52;33.71;100124.03;6582725;27;33695;-86
2023/05/11 15:31:23;;;;;;;2.58;2.15;;;;;;;19.53;34.17;100130.28;6581658;27;34128;-85
